Etusivu
METAR-TAF:

METAR-TAF

Lentoasemat :

Kansain kansainvälinen lentoasema

Kansai, Japani

Leveyspiiri: 34-25N, Pituuspiiri: 135-15E, korkeus merenpinnasta: 5 m

Tämänhetkinen sää

Tämä raportti tehtiin 42 minuuttia sitten, kello 23.00 UTC
Tuuli 5 kn lounaasta
Lämpötila 17°C
Kosteus 88%
Ilmanpaine 1004 hPa
Näkyvyys 10 km tai enemmän
Muutamia pilviä 1000 ft:n korkeudessa
Hajonneita pilviä 2500 ft:n korkeudessa

METAR: RJBB 252300Z 22005KT 9999 FEW010 BKN025 17/15 Q1004 NOSIG

Aika: 08:42 (23:42 UTC)

Sääennuste

Tämä raportti tehtiin 1 tunti ja 56 minuuttia sitten, kello 21.46 UTC
Ennuste voimassa 25. päivästä klo 21 UTC - 27. päivään klo 00 UTC
Tuuli 10 kn lännestä
Näkyvyys 10 km tai enemmän
Muutamia pilviä 2000 ft:n korkeudessa
Hajonneita pilviä 4500 ft:n korkeudessa
Tulossa
26. päivästä klo 09 UTC - 26. päivään klo 12 UTC
Tuuli 16 kn pohjoisen/luoteesta

TAF: RJBB 252146Z 2521/2700 27010KT 9999 FEW020 BKN045 BECMG 2609/2612 34016KT

Säähavainnot ja -ennusteet yli 4000 lentoasemalta (METAR- ja TAF-raportit).

Käytössä olevat sääasemat on merkitty karttaan keltaisilla ja punaisilla pisteillä.

Aseta hiiri pisteen päälle nähdäksesi sääaseman nimen.

Klikkaa sitten nähdäksesi säähavainnot ja -ennusteet.

Kartan vaihtaminen: klikkaa mustalla rastilla varustettuja vihreitä pisteitä, niin voit zoomata sisään; viivalla varustettua vihreää pistettä, niin voit zoomata ulos tai vihreitä nuolia, niin pääset viereisille kartoille.


METAR-TAF: